sensor_id;sensor_type;location;lat;lon;timestamp;P1;P2;P0
12542;PMS3003;6337;49.556;25.594;2023-04-25T00:00:19;10.40;5.97;
12542;PMS3003;6337;49.556;25.594;2023-04-25T00:02:50;8.60;5.33;
12542;PMS3003;6337;49.556;25.594;2023-04-25T00:05:18;6.80;6.10;
12542;PMS3003;6337;49.556;25.594;2023-04-25T00:07:48;7.00;5.20;
12542;PMS3003;6337;49.556;25.594;2023-04-25T00:10:18;6.47;5.83;
12542;PMS3003;6337;49.556;25.594;2023-04-25T00:12:46;8.07;5.87;
12542;PMS3003;6337;49.556;25.594;2023-04-25T00:15:15;6.93;5.90;
12542;PMS3003;6337;49.556;25.594;2023-04-25T00:20:32;12.43;5.43;
12542;PMS3003;6337;49.556;25.594;2023-04-25T00:23:00;7.90;6.17;
12542;PMS3003;6337;49.556;25.594;2023-04-25T00:25:31;9.10;6.30;
12542;PMS3003;6337;49.556;25.594;2023-04-25T00:30:27;7.20;6.47;
12542;PMS3003;6337;49.556;25.594;2023-04-25T00:32:55;6.97;5.80;
12542;PMS3003;6337;49.556;25.594;2023-04-25T00:38:01;9.33;7.20;
12542;PMS3003;6337;49.556;25.594;2023-04-25T00:43:05;8.50;6.40;
12542;PMS3003;6337;49.556;25.594;2023-04-25T00:45:34;9.17;5.70;
12542;PMS3003;6337;49.556;25.594;2023-04-25T00:48:05;6.90;5.10;
12542;PMS3003;6337;49.556;25.594;2023-04-25T00:50:34;11.30;6.97;
12542;PMS3003;6337;49.556;25.594;2023-04-25T00:53:03;6.93;6.30;
12542;PMS3003;6337;49.556;25.594;2023-04-25T00:55:33;12.70;6.20;
12542;PMS3003;6337;49.556;25.594;2023-04-25T00:58:11;6.33;5.83;
12542;PMS3003;6337;49.556;25.594;2023-04-25T01:00:39;9.17;6.20;
12542;PMS3003;6337;49.556;25.594;2023-04-25T01:03:10;6.90;5.40;
12542;PMS3003;6337;49.556;25.594;2023-04-25T01:05:38;8.10;6.40;
12542;PMS3003;6337;49.556;25.594;2023-04-25T01:08:10;9.23;7.07;
12542;PMS3003;6337;49.556;25.594;2023-04-25T01:10:52;14.53;6.17;
12542;PMS3003;6337;49.556;25.594;2023-04-25T01:13:21;11.93;6.20;
12542;PMS3003;6337;49.556;25.594;2023-04-25T01:15:49;7.33;6.57;
12542;PMS3003;6337;49.556;25.594;2023-04-25T01:18:16;7.03;5.83;
12542;PMS3003;6337;49.556;25.594;2023-04-25T01:20:47;9.37;6.47;
12542;PMS3003;6337;49.556;25.594;2023-04-25T01:23:20;8.97;7.33;
12542;PMS3003;6337;49.556;25.594;2023-04-25T01:25:47;7.53;6.80;
12542;PMS3003;6337;49.556;25.594;2023-04-25T01:28:15;6.50;5.87;
12542;PMS3003;6337;49.556;25.594;2023-04-25T01:30:43;7.67;6.97;
12542;PMS3003;6337;49.556;25.594;2023-04-25T01:33:14;18.23;6.50;
12542;PMS3003;6337;49.556;25.594;2023-04-25T01:35:44;12.23;6.93;
12542;PMS3003;6337;49.556;25.594;2023-04-25T01:38:12;6.53;5.93;
12542;PMS3003;6337;49.556;25.594;2023-04-25T01:40:42;6.57;6.07;
12542;PMS3003;6337;49.556;25.594;2023-04-25T01:43:12;6.53;6.00;
12542;PMS3003;6337;49.556;25.594;2023-04-25T01:45:40;7.37;6.67;
12542;PMS3003;6337;49.556;25.594;2023-04-25T01:48:09;7.60;6.80;
12542;PMS3003;6337;49.556;25.594;2023-04-25T01:50:38;7.00;6.20;
12542;PMS3003;6337;49.556;25.594;2023-04-25T01:53:06;10.33;7.03;
12542;PMS3003;6337;49.556;25.594;2023-04-25T01:55:33;7.43;6.70;
12542;PMS3003;6337;49.556;25.594;2023-04-25T01:58:06;7.70;6.47;
12542;PMS3003;6337;49.556;25.594;2023-04-25T02:00:37;7.63;6.83;
12542;PMS3003;6337;49.556;25.594;2023-04-25T02:03:06;8.70;6.73;
12542;PMS3003;6337;49.556;25.594;2023-04-25T02:05:35;7.63;6.73;
12542;PMS3003;6337;49.556;25.594;2023-04-25T02:08:06;9.77;6.93;
12542;PMS3003;6337;49.556;25.594;2023-04-25T02:10:41;8.10;5.60;
12542;PMS3003;6337;49.556;25.594;2023-04-25T02:13:12;6.23;5.63;
12542;PMS3003;6337;49.556;25.594;2023-04-25T02:15:53;6.03;5.43;
12542;PMS3003;6337;49.556;25.594;2023-04-25T02:18:23;7.50;6.67;
12542;PMS3003;6337;49.556;25.594;2023-04-25T02:20:53;7.77;6.93;
12542;PMS3003;6337;49.556;25.594;2023-04-25T02:23:21;8.33;5.87;
12542;PMS3003;6337;49.556;25.594;2023-04-25T02:25:52;10.57;6.23;
12542;PMS3003;6337;49.556;25.594;2023-04-25T02:28:22;13.67;6.90;
12542;PMS3003;6337;49.556;25.594;2023-04-25T02:30:52;8.83;7.30;
12542;PMS3003;6337;49.556;25.594;2023-04-25T02:33:20;7.67;6.83;
12542;PMS3003;6337;49.556;25.594;2023-04-25T02:35:47;7.77;6.00;
12542;PMS3003;6337;49.556;25.594;2023-04-25T02:38:15;8.93;6.97;
12542;PMS3003;6337;49.556;25.594;2023-04-25T02:40:42;6.77;6.10;
12542;PMS3003;6337;49.556;25.594;2023-04-25T02:43:10;7.03;6.33;
12542;PMS3003;6337;49.556;25.594;2023-04-25T02:45:44;7.77;6.20;
12542;PMS3003;6337;49.556;25.594;2023-04-25T02:48:15;11.50;7.43;
12542;PMS3003;6337;49.556;25.594;2023-04-25T02:50:43;7.23;5.63;
12542;PMS3003;6337;49.556;25.594;2023-04-25T02:53:12;7.00;6.00;
12542;PMS3003;6337;49.556;25.594;2023-04-25T02:55:39;6.97;5.87;
12542;PMS3003;6337;49.556;25.594;2023-04-25T02:58:07;9.43;8.40;
12542;PMS3003;6337;49.556;25.594;2023-04-25T03:00:36;6.93;6.17;
12542;PMS3003;6337;49.556;25.594;2023-04-25T03:03:06;9.70;6.83;
12542;PMS3003;6337;49.556;25.594;2023-04-25T03:05:33;8.70;7.10;
12542;PMS3003;6337;49.556;25.594;2023-04-25T03:08:02;10.50;7.00;
12542;PMS3003;6337;49.556;25.594;2023-04-25T03:10:34;16.17;8.17;
12542;PMS3003;6337;49.556;25.594;2023-04-25T03:13:01;11.57;7.30;
12542;PMS3003;6337;49.556;25.594;2023-04-25T03:15:29;12.40;8.37;
12542;PMS3003;6337;49.556;25.594;2023-04-25T03:17:56;9.50;6.60;
12542;PMS3003;6337;49.556;25.594;2023-04-25T03:20:31;11.63;7.10;
12542;PMS3003;6337;49.556;25.594;2023-04-25T03:23:02;8.80;7.00;
12542;PMS3003;6337;49.556;25.594;2023-04-25T03:25:30;9.90;6.53;
12542;PMS3003;6337;49.556;25.594;2023-04-25T03:27:57;17.10;8.10;
12542;PMS3003;6337;49.556;25.594;2023-04-25T03:30:25;8.50;7.13;
12542;PMS3003;6337;49.556;25.594;2023-04-25T03:32:52;9.03;7.73;
12542;PMS3003;6337;49.556;25.594;2023-04-25T03:35:21;9.00;6.90;
12542;PMS3003;6337;49.556;25.594;2023-04-25T03:37:50;7.97;7.23;
12542;PMS3003;6337;49.556;25.594;2023-04-25T03:40:18;10.63;8.13;
12542;PMS3003;6337;49.556;25.594;2023-04-25T03:42:47;17.37;8.20;
12542;PMS3003;6337;49.556;25.594;2023-04-25T03:45:15;8.93;7.20;
12542;PMS3003;6337;49.556;25.594;2023-04-25T03:47:44;11.00;7.60;
12542;PMS3003;6337;49.556;25.594;2023-04-25T03:50:13;9.13;7.67;
12542;PMS3003;6337;49.556;25.594;2023-04-25T03:52:41;9.60;6.83;
12542;PMS3003;6337;49.556;25.594;2023-04-25T03:55:13;9.57;7.90;
12542;PMS3003;6337;49.556;25.594;2023-04-25T03:57:44;10.00;8.43;
12542;PMS3003;6337;49.556;25.594;2023-04-25T04:00:12;8.80;7.10;
12542;PMS3003;6337;49.556;25.594;2023-04-25T04:02:41;8.77;7.47;
12542;PMS3003;6337;49.556;25.594;2023-04-25T04:05:15;8.10;7.30;
12542;PMS3003;6337;49.556;25.594;2023-04-25T04:07:46;10.30;8.60;
12542;PMS3003;6337;49.556;25.594;2023-04-25T04:10:16;10.80;7.97;
12542;PMS3003;6337;49.556;25.594;2023-04-25T04:12:45;13.83;8.40;
12542;PMS3003;6337;49.556;25.594;2023-04-25T04:15:12;10.17;7.40;
12542;PMS3003;6337;49.556;25.594;2023-04-25T04:17:40;8.57;7.73;
12542;PMS3003;6337;49.556;25.594;2023-04-25T04:20:08;15.20;7.47;
12542;PMS3003;6337;49.556;25.594;2023-04-25T04:22:36;12.37;8.60;
12542;PMS3003;6337;49.556;25.594;2023-04-25T04:25:04;15.63;8.50;
12542;PMS3003;6337;49.556;25.594;2023-04-25T04:27:34;15.20;9.63;
12542;PMS3003;6337;49.556;25.594;2023-04-25T04:30:01;11.07;9.60;
12542;PMS3003;6337;49.556;25.594;2023-04-25T04:32:31;14.60;8.90;
12542;PMS3003;6337;49.556;25.594;2023-04-25T04:35:01;11.20;8.60;
12542;PMS3003;6337;49.556;25.594;2023-04-25T04:37:29;15.80;10.10;
12542;PMS3003;6337;49.556;25.594;2023-04-25T04:39:57;27.33;10.30;
12542;PMS3003;6337;49.556;25.594;2023-04-25T04:42:30;18.43;11.10;
12542;PMS3003;6337;49.556;25.594;2023-04-25T04:44:59;29.43;10.57;
12542;PMS3003;6337;49.556;25.594;2023-04-25T04:47:29;22.27;10.43;
12542;PMS3003;6337;49.556;25.594;2023-04-25T04:50:02;22.20;10.33;
12542;PMS3003;6337;49.556;25.594;2023-04-25T04:52:32;19.03;10.90;
12542;PMS3003;6337;49.556;25.594;2023-04-25T04:55:01;17.60;10.50;
12542;PMS3003;6337;49.556;25.594;2023-04-25T04:57:28;24.90;11.87;
12542;PMS3003;6337;49.556;25.594;2023-04-25T05:00:00;24.90;13.17;
12542;PMS3003;6337;49.556;25.594;2023-04-25T05:02:29;42.90;11.80;
12542;PMS3003;6337;49.556;25.594;2023-04-25T05:04:57;22.77;10.27;
12542;PMS3003;6337;49.556;25.594;2023-04-25T05:07:26;14.03;9.40;
12542;PMS3003;6337;49.556;25.594;2023-04-25T05:09:53;12.27;9.57;
12542;PMS3003;6337;49.556;25.594;2023-04-25T05:12:22;16.67;10.57;
12542;PMS3003;6337;49.556;25.594;2023-04-25T05:14:50;17.37;10.17;
12542;PMS3003;6337;49.556;25.594;2023-04-25T05:17:21;15.40;9.77;
12542;PMS3003;6337;49.556;25.594;2023-04-25T05:19:48;12.73;8.60;
12542;PMS3003;6337;49.556;25.594;2023-04-25T05:22:16;14.13;8.60;
12542;PMS3003;6337;49.556;25.594;2023-04-25T05:24:45;15.93;10.43;
12542;PMS3003;6337;49.556;25.594;2023-04-25T05:27:13;19.73;9.80;
12542;PMS3003;6337;49.556;25.594;2023-04-25T05:29:41;11.80;9.10;
12542;PMS3003;6337;49.556;25.594;2023-04-25T05:32:08;16.47;9.93;
12542;PMS3003;6337;49.556;25.594;2023-04-25T05:34:37;10.93;8.47;
12542;PMS3003;6337;49.556;25.594;2023-04-25T05:37:06;12.35;10.40;
12542;PMS3003;6337;49.556;25.594;2023-04-25T05:39:34;14.63;9.40;
12542;PMS3003;6337;49.556;25.594;2023-04-25T05:42:03;12.93;10.03;
12542;PMS3003;6337;49.556;25.594;2023-04-25T05:44:31;18.93;10.90;
12542;PMS3003;6337;49.556;25.594;2023-04-25T05:47:01;16.97;11.67;
12542;PMS3003;6337;49.556;25.594;2023-04-25T05:49:29;17.07;13.40;
12542;PMS3003;6337;49.556;25.594;2023-04-25T05:52:00;15.20;11.33;
12542;PMS3003;6337;49.556;25.594;2023-04-25T05:54:40;15.57;12.90;
12542;PMS3003;6337;49.556;25.594;2023-04-25T05:57:08;25.13;14.30;
12542;PMS3003;6337;49.556;25.594;2023-04-25T05:59:36;18.23;12.47;
12542;PMS3003;6337;49.556;25.594;2023-04-25T06:02:04;29.30;11.93;
12542;PMS3003;6337;49.556;25.594;2023-04-25T06:04:32;17.67;10.73;
12542;PMS3003;6337;49.556;25.594;2023-04-25T06:07:02;27.00;11.10;
12542;PMS3003;6337;49.556;25.594;2023-04-25T06:09:34;16.40;11.10;
12542;PMS3003;6337;49.556;25.594;2023-04-25T06:12:04;18.77;12.83;
12542;PMS3003;6337;49.556;25.594;2023-04-25T06:14:32;23.20;13.00;
12542;PMS3003;6337;49.556;25.594;2023-04-25T06:16:59;21.50;13.00;
12542;PMS3003;6337;49.556;25.594;2023-04-25T06:19:31;20.60;12.07;
12542;PMS3003;6337;49.556;25.594;2023-04-25T06:21:59;24.03;12.23;
12542;PMS3003;6337;49.556;25.594;2023-04-25T06:24:32;13.83;10.17;
12542;PMS3003;6337;49.556;25.594;2023-04-25T06:27:00;19.30;11.63;
12542;PMS3003;6337;49.556;25.594;2023-04-25T06:29:28;20.47;12.40;
12542;PMS3003;6337;49.556;25.594;2023-04-25T06:31:56;25.60;10.67;
12542;PMS3003;6337;49.556;25.594;2023-04-25T06:34:24;23.67;13.30;
12542;PMS3003;6337;49.556;25.594;2023-04-25T06:36:51;29.57;13.57;
12542;PMS3003;6337;49.556;25.594;2023-04-25T06:39:19;26.63;13.50;
12542;PMS3003;6337;49.556;25.594;2023-04-25T06:41:52;16.37;11.10;
12542;PMS3003;6337;49.556;25.594;2023-04-25T06:44:23;20.00;12.30;
12542;PMS3003;6337;49.556;25.594;2023-04-25T06:46:51;22.83;10.83;
12542;PMS3003;6337;49.556;25.594;2023-04-25T06:49:19;16.97;10.43;
12542;PMS3003;6337;49.556;25.594;2023-04-25T06:51:50;17.83;8.33;
12542;PMS3003;6337;49.556;25.594;2023-04-25T06:54:18;9.47;8.43;
12542;PMS3003;6337;49.556;25.594;2023-04-25T06:56:45;20.73;8.53;
12542;PMS3003;6337;49.556;25.594;2023-04-25T06:59:15;22.90;8.33;
12542;PMS3003;6337;49.556;25.594;2023-04-25T07:01:45;16.47;9.77;
12542;PMS3003;6337;49.556;25.594;2023-04-25T07:04:13;12.67;8.77;
12542;PMS3003;6337;49.556;25.594;2023-04-25T07:06:41;23.03;9.47;
12542;PMS3003;6337;49.556;25.594;2023-04-25T07:09:09;27.90;20.17;
12542;PMS3003;6337;49.556;25.594;2023-04-25T07:11:37;52.90;39.27;
12542;PMS3003;6337;49.556;25.594;2023-04-25T07:14:05;31.40;23.30;
12542;PMS3003;6337;49.556;25.594;2023-04-25T07:16:35;21.33;17.03;
12542;PMS3003;6337;49.556;25.594;2023-04-25T07:19:02;9.63;8.63;
12542;PMS3003;6337;49.556;25.594;2023-04-25T07:21:30;18.83;10.07;
12542;PMS3003;6337;49.556;25.594;2023-04-25T07:23:58;31.83;26.53;
12542;PMS3003;6337;49.556;25.594;2023-04-25T07:26:26;19.90;14.63;
12542;PMS3003;6337;49.556;25.594;2023-04-25T07:28:53;11.37;9.43;
12542;PMS3003;6337;49.556;25.594;2023-04-25T07:31:21;10.23;7.90;
12542;PMS3003;6337;49.556;25.594;2023-04-25T07:33:52;11.60;9.43;
12542;PMS3003;6337;49.556;25.594;2023-04-25T07:36:20;40.90;22.63;
12542;PMS3003;6337;49.556;25.594;2023-04-25T07:38:48;33.93;24.77;
12542;PMS3003;6337;49.556;25.594;2023-04-25T07:41:15;40.40;27.67;
12542;PMS3003;6337;49.556;25.594;2023-04-25T07:43:50;30.20;17.63;
12542;PMS3003;6337;49.556;25.594;2023-04-25T07:46:18;24.67;15.27;
12542;PMS3003;6337;49.556;25.594;2023-04-25T07:48:46;49.23;31.53;
12542;PMS3003;6337;49.556;25.594;2023-04-25T07:51:16;20.50;12.80;
12542;PMS3003;6337;49.556;25.594;2023-04-25T07:53:45;39.17;25.90;
12542;PMS3003;6337;49.556;25.594;2023-04-25T07:56:14;57.73;33.93;
12542;PMS3003;6337;49.556;25.594;2023-04-25T07:58:43;14.90;11.93;
12542;PMS3003;6337;49.556;25.594;2023-04-25T08:01:11;13.10;9.37;
12542;PMS3003;6337;49.556;25.594;2023-04-25T08:03:38;9.70;8.17;
12542;PMS3003;6337;49.556;25.594;2023-04-25T08:06:06;15.27;11.33;
12542;PMS3003;6337;49.556;25.594;2023-04-25T08:08:42;21.77;13.60;
12542;PMS3003;6337;49.556;25.594;2023-04-25T08:11:10;13.97;9.03;
12542;PMS3003;6337;49.556;25.594;2023-04-25T08:13:40;16.10;12.27;
12542;PMS3003;6337;49.556;25.594;2023-04-25T08:18:51;20.13;10.33;
12542;PMS3003;6337;49.556;25.594;2023-04-25T08:21:23;33.63;18.40;
12542;PMS3003;6337;49.556;25.594;2023-04-25T09:22:26;11.57;8.37;
12542;PMS3003;6337;49.556;25.594;2023-04-25T09:27:31;12.45;6.50;
12542;PMS3003;6337;49.556;25.594;2023-04-25T09:43:25;17.97;9.87;
12542;PMS3003;6337;49.556;25.594;2023-04-25T09:45:55;27.07;12.27;
12542;PMS3003;6337;49.556;25.594;2023-04-25T09:48:28;14.50;9.70;
12542;PMS3003;6337;49.556;25.594;2023-04-25T09:51:06;24.53;13.70;
12542;PMS3003;6337;49.556;25.594;2023-04-25T10:15:26;73.07;36.93;
12542;PMS3003;6337;49.556;25.594;2023-04-25T10:17:54;73.67;36.87;
12542;PMS3003;6337;49.556;25.594;2023-04-25T10:20:36;27.17;17.77;
12542;PMS3003;6337;49.556;25.594;2023-04-25T10:23:18;28.23;17.93;
12542;PMS3003;6337;49.556;25.594;2023-04-25T10:25:46;16.90;9.40;
12542;PMS3003;6337;49.556;25.594;2023-04-25T10:28:14;13.07;9.07;
12542;PMS3003;6337;49.556;25.594;2023-04-25T10:33:34;39.30;17.57;
12542;PMS3003;6337;49.556;25.594;2023-04-25T10:36:08;26.13;13.80;
12542;PMS3003;6337;49.556;25.594;2023-04-25T10:39:05;16.23;7.80;
12542;PMS3003;6337;49.556;25.594;2023-04-25T10:44:10;9.57;8.37;
12542;PMS3003;6337;49.556;25.594;2023-04-25T10:49:28;6.93;6.10;
12542;PMS3003;6337;49.556;25.594;2023-04-25T10:52:25;13.20;6.53;
12542;PMS3003;6337;49.556;25.594;2023-04-25T10:54:55;7.23;5.80;
12542;PMS3003;6337;49.556;25.594;2023-04-25T10:57:28;12.37;5.83;
12542;PMS3003;6337;49.556;25.594;2023-04-25T11:00:05;11.40;5.47;
12542;PMS3003;6337;49.556;25.594;2023-04-25T11:02:36;12.00;6.37;
12542;PMS3003;6337;49.556;25.594;2023-04-25T11:05:05;10.00;7.27;
12542;PMS3003;6337;49.556;25.594;2023-04-25T11:07:37;8.03;5.83;
12542;PMS3003;6337;49.556;25.594;2023-04-25T11:10:08;9.20;6.10;
12542;PMS3003;6337;49.556;25.594;2023-04-25T11:12:40;9.63;6.20;
12542;PMS3003;6337;49.556;25.594;2023-04-25T11:32:06;10.60;5.83;
12542;PMS3003;6337;49.556;25.594;2023-04-25T11:34:35;13.53;7.07;
12542;PMS3003;6337;49.556;25.594;2023-04-25T11:37:03;13.23;7.13;
12542;PMS3003;6337;49.556;25.594;2023-04-25T11:42:22;9.33;7.00;
12542;PMS3003;6337;49.556;25.594;2023-04-25T11:44:52;6.30;5.47;
12542;PMS3003;6337;49.556;25.594;2023-04-25T11:47:32;11.50;5.70;
12542;PMS3003;6337;49.556;25.594;2023-04-25T11:50:02;9.90;5.40;
12542;PMS3003;6337;49.556;25.594;2023-04-25T11:55:06;10.33;5.50;
12542;PMS3003;6337;49.556;25.594;2023-04-25T11:57:37;10.23;5.20;
12542;PMS3003;6337;49.556;25.594;2023-04-25T12:00:11;7.10;5.40;
12542;PMS3003;6337;49.556;25.594;2023-04-25T12:05:18;14.73;6.43;
12542;PMS3003;6337;49.556;25.594;2023-04-25T12:07:47;6.43;5.40;
12542;PMS3003;6337;49.556;25.594;2023-04-25T12:10:17;10.93;5.70;
12542;PMS3003;6337;49.556;25.594;2023-04-25T12:33:54;7.30;5.40;
12542;PMS3003;6337;49.556;25.594;2023-04-25T12:39:16;5.00;4.55;
12542;PMS3003;6337;49.556;25.594;2023-04-25T12:41:59;16.00;5.50;
12542;PMS3003;6337;49.556;25.594;2023-04-25T13:20:46;8.53;5.63;
12542;PMS3003;6337;49.556;25.594;2023-04-25T13:23:14;14.13;5.00;
12542;PMS3003;6337;49.556;25.594;2023-04-25T13:25:41;8.70;5.50;
12542;PMS3003;6337;49.556;25.594;2023-04-25T13:28:13;6.50;5.43;
12542;PMS3003;6337;49.556;25.594;2023-04-25T13:30:42;11.40;5.63;
12542;PMS3003;6337;49.556;25.594;2023-04-25T13:33:10;11.27;5.80;
12542;PMS3003;6337;49.556;25.594;2023-04-25T13:35:38;7.90;5.50;
12542;PMS3003;6337;49.556;25.594;2023-04-25T13:38:07;8.80;5.03;
12542;PMS3003;6337;49.556;25.594;2023-04-25T13:40:42;8.00;4.60;
12542;PMS3003;6337;49.556;25.594;2023-04-25T13:43:11;8.10;5.47;
12542;PMS3003;6337;49.556;25.594;2023-04-25T13:50:52;12.27;6.80;
12542;PMS3003;6337;49.556;25.594;2023-04-25T13:53:24;9.83;4.80;
12542;PMS3003;6337;49.556;25.594;2023-04-25T14:03:42;13.13;6.27;
12542;PMS3003;6337;49.556;25.594;2023-04-25T14:06:31;8.33;5.67;
12542;PMS3003;6337;49.556;25.594;2023-04-25T14:11:40;4.90;4.40;
12542;PMS3003;6337;49.556;25.594;2023-04-25T14:14:08;8.20;6.00;
12542;PMS3003;6337;49.556;25.594;2023-04-25T14:16:37;7.93;6.00;
12542;PMS3003;6337;49.556;25.594;2023-04-25T14:30:17;24.03;6.20;
12542;PMS3003;6337;49.556;25.594;2023-04-25T14:32:44;13.10;5.67;
12542;PMS3003;6337;49.556;25.594;2023-04-25T14:35:17;7.83;5.00;
12542;PMS3003;6337;49.556;25.594;2023-04-25T14:37:45;8.67;5.17;
12542;PMS3003;6337;49.556;25.594;2023-04-25T14:40:14;11.27;6.23;
12542;PMS3003;6337;49.556;25.594;2023-04-25T14:42:43;7.67;6.77;
12542;PMS3003;6337;49.556;25.594;2023-04-25T14:45:11;12.60;5.93;
12542;PMS3003;6337;49.556;25.594;2023-04-25T14:47:42;7.60;5.93;
12542;PMS3003;6337;49.556;25.594;2023-04-25T14:50:11;6.30;5.80;
12542;PMS3003;6337;49.556;25.594;2023-04-25T14:52:39;11.20;6.00;
12542;PMS3003;6337;49.556;25.594;2023-04-25T14:55:08;8.40;6.17;
12542;PMS3003;6337;49.556;25.594;2023-04-25T14:57:36;7.77;6.60;
12542;PMS3003;6337;49.556;25.594;2023-04-25T15:00:05;10.40;6.17;
12542;PMS3003;6337;49.556;25.594;2023-04-25T15:02:36;11.80;5.97;
12542;PMS3003;6337;49.556;25.594;2023-04-25T15:05:16;14.03;6.40;
12542;PMS3003;6337;49.556;25.594;2023-04-25T15:07:45;9.93;6.23;
12542;PMS3003;6337;49.556;25.594;2023-04-25T15:10:18;6.67;6.00;
12542;PMS3003;6337;49.556;25.594;2023-04-25T15:12:47;12.47;6.30;
12542;PMS3003;6337;49.556;25.594;2023-04-25T15:15:17;9.87;6.53;
12542;PMS3003;6337;49.556;25.594;2023-04-25T15:17:49;9.40;6.30;
12542;PMS3003;6337;49.556;25.594;2023-04-25T15:25:53;10.20;5.03;
12542;PMS3003;6337;49.556;25.594;2023-04-25T15:30:50;12.07;5.97;
12542;PMS3003;6337;49.556;25.594;2023-04-25T15:33:18;12.00;7.00;
12542;PMS3003;6337;49.556;25.594;2023-04-25T15:35:49;16.33;6.53;
12542;PMS3003;6337;49.556;25.594;2023-04-25T15:38:33;13.13;6.20;
12542;PMS3003;6337;49.556;25.594;2023-04-25T15:41:07;20.63;12.40;
12542;PMS3003;6337;49.556;25.594;2023-04-25T15:43:36;19.53;7.73;
12542;PMS3003;6337;49.556;25.594;2023-04-25T15:46:21;18.40;8.43;
12542;PMS3003;6337;49.556;25.594;2023-04-25T15:48:50;15.00;7.67;
12542;PMS3003;6337;49.556;25.594;2023-04-25T15:51:17;14.30;9.50;
12542;PMS3003;6337;49.556;25.594;2023-04-25T15:53:47;15.97;7.73;
12542;PMS3003;6337;49.556;25.594;2023-04-25T15:56:18;13.70;8.03;
12542;PMS3003;6337;49.556;25.594;2023-04-25T15:58:46;13.00;6.60;
12542;PMS3003;6337;49.556;25.594;2023-04-25T16:01:15;10.43;5.90;
12542;PMS3003;6337;49.556;25.594;2023-04-25T16:03:49;9.73;6.93;
12542;PMS3003;6337;49.556;25.594;2023-04-25T16:06:21;11.33;7.43;
12542;PMS3003;6337;49.556;25.594;2023-04-25T16:08:49;18.13;8.87;
12542;PMS3003;6337;49.556;25.594;2023-04-25T16:11:19;31.90;10.10;
12542;PMS3003;6337;49.556;25.594;2023-04-25T16:13:50;28.10;13.13;
12542;PMS3003;6337;49.556;25.594;2023-04-25T16:16:18;25.40;11.47;
12542;PMS3003;6337;49.556;25.594;2023-04-25T16:18:46;16.70;10.10;
12542;PMS3003;6337;49.556;25.594;2023-04-25T16:21:14;22.03;11.93;
12542;PMS3003;6337;49.556;25.594;2023-04-25T16:23:43;23.93;11.50;
12542;PMS3003;6337;49.556;25.594;2023-04-25T16:26:27;22.23;11.70;
12542;PMS3003;6337;49.556;25.594;2023-04-25T16:28:56;18.80;10.40;
12542;PMS3003;6337;49.556;25.594;2023-04-25T16:31:25;21.80;12.87;
12542;PMS3003;6337;49.556;25.594;2023-04-25T16:33:54;20.93;13.07;
12542;PMS3003;6337;49.556;25.594;2023-04-25T16:36:36;22.73;12.10;
12542;PMS3003;6337;49.556;25.594;2023-04-25T16:39:04;18.67;13.40;
12542;PMS3003;6337;49.556;25.594;2023-04-25T16:41:41;27.43;16.20;
12542;PMS3003;6337;49.556;25.594;2023-04-25T16:44:09;17.97;13.00;
12542;PMS3003;6337;49.556;25.594;2023-04-25T16:46:38;35.87;16.00;
12542;PMS3003;6337;49.556;25.594;2023-04-25T16:49:25;24.53;14.30;
12542;PMS3003;6337;49.556;25.594;2023-04-25T16:51:57;22.73;11.23;
12542;PMS3003;6337;49.556;25.594;2023-04-25T16:54:24;19.17;10.90;
12542;PMS3003;6337;49.556;25.594;2023-04-25T16:56:57;19.10;12.07;
12542;PMS3003;6337;49.556;25.594;2023-04-25T16:59:25;12.80;11.50;
12542;PMS3003;6337;49.556;25.594;2023-04-25T17:01:53;16.37;11.07;
12542;PMS3003;6337;49.556;25.594;2023-04-25T17:04:22;14.20;12.07;
12542;PMS3003;6337;49.556;25.594;2023-04-25T17:06:51;18.03;11.90;
12542;PMS3003;6337;49.556;25.594;2023-04-25T17:09:18;14.47;10.40;
12542;PMS3003;6337;49.556;25.594;2023-04-25T17:11:47;15.90;10.30;
12542;PMS3003;6337;49.556;25.594;2023-04-25T17:14:17;22.97;10.23;
12542;PMS3003;6337;49.556;25.594;2023-04-25T17:16:46;14.30;10.00;
12542;PMS3003;6337;49.556;25.594;2023-04-25T17:19:15;12.93;8.53;
12542;PMS3003;6337;49.556;25.594;2023-04-25T17:21:43;16.93;9.23;
12542;PMS3003;6337;49.556;25.594;2023-04-25T17:24:12;11.17;9.93;
12542;PMS3003;6337;49.556;25.594;2023-04-25T17:26:40;17.23;9.10;
12542;PMS3003;6337;49.556;25.594;2023-04-25T17:29:07;15.10;8.23;
12542;PMS3003;6337;49.556;25.594;2023-04-25T17:31:37;20.30;7.43;
12542;PMS3003;6337;49.556;25.594;2023-04-25T17:34:05;6.80;6.20;
12542;PMS3003;6337;49.556;25.594;2023-04-25T17:36:36;12.03;6.67;
12542;PMS3003;6337;49.556;25.594;2023-04-25T17:39:04;11.20;7.37;
12542;PMS3003;6337;49.556;25.594;2023-04-25T17:41:32;9.17;6.93;
12542;PMS3003;6337;49.556;25.594;2023-04-25T17:44:01;9.50;6.23;
12542;PMS3003;6337;49.556;25.594;2023-04-25T17:46:30;7.10;6.40;
12542;PMS3003;6337;49.556;25.594;2023-04-25T17:49:01;8.27;5.20;
12542;PMS3003;6337;49.556;25.594;2023-04-25T17:51:31;13.73;6.07;
12542;PMS3003;6337;49.556;25.594;2023-04-25T17:53:59;11.03;6.93;
12542;PMS3003;6337;49.556;25.594;2023-04-25T17:56:27;7.10;5.93;
12542;PMS3003;6337;49.556;25.594;2023-04-25T17:58:55;11.90;6.80;
12542;PMS3003;6337;49.556;25.594;2023-04-25T18:01:24;5.97;5.37;
12542;PMS3003;6337;49.556;25.594;2023-04-25T18:03:52;6.00;5.50;
12542;PMS3003;6337;49.556;25.594;2023-04-25T18:06:21;6.07;5.47;
12542;PMS3003;6337;49.556;25.594;2023-04-25T18:08:57;8.83;6.63;
12542;PMS3003;6337;49.556;25.594;2023-04-25T18:11:27;9.30;5.50;
12542;PMS3003;6337;49.556;25.594;2023-04-25T18:13:55;9.10;7.37;
12542;PMS3003;6337;49.556;25.594;2023-04-25T18:16:23;8.73;7.90;
12542;PMS3003;6337;49.556;25.594;2023-04-25T18:18:52;9.60;6.10;
12542;PMS3003;6337;49.556;25.594;2023-04-25T18:21:33;6.83;6.13;
12542;PMS3003;6337;49.556;25.594;2023-04-25T18:24:01;8.77;7.40;
12542;PMS3003;6337;49.556;25.594;2023-04-25T18:26:29;21.73;7.63;
12542;PMS3003;6337;49.556;25.594;2023-04-25T18:28:57;7.20;6.27;
12542;PMS3003;6337;49.556;25.594;2023-04-25T18:31:25;10.93;6.57;
12542;PMS3003;6337;49.556;25.594;2023-04-25T18:33:54;7.23;6.53;
12542;PMS3003;6337;49.556;25.594;2023-04-25T18:36:22;8.67;6.60;
12542;PMS3003;6337;49.556;25.594;2023-04-25T18:38:59;7.87;6.73;
12542;PMS3003;6337;49.556;25.594;2023-04-25T18:41:32;8.03;7.23;
12542;PMS3003;6337;49.556;25.594;2023-04-25T18:43:59;12.07;7.87;
12542;PMS3003;6337;49.556;25.594;2023-04-25T18:46:30;12.10;8.20;
12542;PMS3003;6337;49.556;25.594;2023-04-25T18:51:31;11.27;9.70;
12542;PMS3003;6337;49.556;25.594;2023-04-25T18:56:52;9.03;8.10;
12542;PMS3003;6337;49.556;25.594;2023-04-25T19:01:51;10.50;7.93;
12542;PMS3003;6337;49.556;25.594;2023-04-25T19:04:19;15.53;8.57;
12542;PMS3003;6337;49.556;25.594;2023-04-25T19:06:51;9.60;8.10;
12542;PMS3003;6337;49.556;25.594;2023-04-25T19:09:26;9.40;7.90;
12542;PMS3003;6337;49.556;25.594;2023-04-25T19:11:57;7.83;7.13;
12542;PMS3003;6337;49.556;25.594;2023-04-25T19:14:38;10.63;7.00;
12542;PMS3003;6337;49.556;25.594;2023-04-25T19:17:08;12.80;7.97;
12542;PMS3003;6337;49.556;25.594;2023-04-25T19:19:37;7.73;6.40;
12542;PMS3003;6337;49.556;25.594;2023-04-25T19:22:08;8.73;7.57;
12542;PMS3003;6337;49.556;25.594;2023-04-25T19:24:39;10.33;7.60;